createdAt,value
2019-03-25T00:00:45.505Z,56.90
2019-03-25T00:03:14.664Z,56.20
2019-03-25T00:05:43.804Z,56.90
2019-03-25T00:08:13.084Z,56.70
2019-03-25T00:10:42.534Z,56.70
2019-03-25T00:13:11.387Z,56.00
2019-03-25T00:15:40.503Z,55.90
2019-03-25T00:18:09.625Z,56.20
2019-03-25T00:20:38.512Z,56.00
2019-03-25T00:23:07.327Z,56.60
2019-03-25T00:25:36.224Z,57.20
2019-03-25T00:28:05.405Z,56.80
2019-03-25T00:30:34.344Z,56.30
2019-03-25T00:33:03.184Z,56.00
2019-03-25T00:35:32.424Z,55.20
2019-03-25T00:38:01.604Z,55.80
2019-03-25T00:40:31.044Z,55.50
2019-03-25T00:42:59.929Z,54.10
2019-03-25T00:45:28.824Z,54.40
2019-03-25T00:47:58.083Z,54.50
2019-03-25T00:50:27.865Z,55.20
2019-03-25T00:52:56.984Z,54.20
2019-03-25T00:55:25.784Z,54.10
2019-03-25T00:57:54.504Z,53.40
2019-03-25T01:00:23.410Z,54.30
2019-03-25T01:02:52.324Z,54.70
2019-03-25T01:05:21.204Z,55.00
2019-03-25T01:07:50.204Z,54.90
2019-03-25T01:10:20.132Z,55.30
2019-03-25T01:12:50.564Z,55.80
2019-03-25T01:15:19.424Z,55.30
2019-03-25T01:17:48.383Z,54.60
2019-03-25T01:20:17.310Z,55.20
2019-03-25T01:22:46.268Z,54.60
2019-03-25T01:25:15.183Z,54.50
2019-03-25T01:27:44.989Z,54.40
2019-03-25T01:30:14.105Z,55.20
2019-03-25T01:32:43.586Z,55.40
2019-03-25T01:35:12.584Z,56.10
2019-03-25T01:37:41.792Z,55.80
2019-03-25T01:40:10.884Z,55.60
2019-03-25T01:42:39.905Z,55.20
2019-03-25T01:45:09.047Z,55.40
2019-03-25T01:47:37.903Z,55.40
2019-03-25T01:50:07.405Z,55.90
2019-03-25T01:52:36.345Z,55.60
2019-03-25T01:55:13.401Z,55.20
2019-03-25T01:57:35.664Z,55.10
2019-03-25T02:00:08.724Z,56.30
2019-03-25T02:02:37.784Z,56.50
2019-03-25T02:05:07.230Z,57.00
2019-03-25T02:07:36.783Z,56.10
2019-03-25T02:10:07.224Z,55.10
2019-03-25T02:12:37.205Z,54.00
2019-03-25T02:15:06.865Z,54.30
2019-03-25T02:17:35.807Z,54.80
2019-03-25T02:20:06.104Z,56.60
2019-03-25T02:22:35.222Z,55.40
2019-03-25T02:25:06.124Z,55.20
2019-03-25T02:27:35.386Z,54.90
2019-03-25T02:30:07.366Z,54.30
2019-03-25T02:32:36.824Z,54.80
2019-03-25T02:35:06.944Z,55.60
2019-03-25T02:37:35.964Z,55.10
2019-03-25T02:40:06.051Z,54.80
2019-03-25T02:42:34.846Z,55.60
2019-03-25T02:45:04.244Z,55.60
2019-03-25T02:47:33.466Z,56.70
2019-03-25T02:50:02.446Z,57.30
2019-03-25T02:52:31.487Z,57.70
2019-03-25T02:55:00.657Z,58.60
2019-03-25T02:57:29.869Z,58.50
2019-03-25T02:59:58.787Z,57.70
2019-03-25T03:02:27.671Z,59.50
2019-03-25T03:04:56.963Z,59.20
2019-03-25T03:07:25.856Z,59.30
2019-03-25T03:09:54.670Z,60.70
2019-03-25T03:12:23.484Z,63.00
2019-03-25T03:14:54.388Z,63.90
2019-03-25T03:17:23.266Z,65.50
2019-03-25T03:19:55.134Z,64.80
2019-03-25T03:22:23.425Z,64.00
2019-03-25T03:24:52.745Z,64.50
2019-03-25T03:27:22.076Z,65.00
2019-03-25T03:29:50.946Z,64.80
2019-03-25T03:32:20.174Z,65.70
2019-03-25T03:34:49.165Z,67.00
2019-03-25T03:37:18.386Z,68.10
2019-03-25T03:39:47.485Z,67.50
2019-03-25T03:42:16.372Z,67.40
2019-03-25T03:44:45.226Z,67.30
2019-03-25T03:47:14.066Z,67.10
2019-03-25T03:49:42.866Z,68.80
2019-03-25T03:52:11.946Z,70.00
2019-03-25T03:54:41.265Z,70.00
2019-03-25T03:57:10.186Z,70.40
2019-03-25T03:59:39.270Z,70.00
2019-03-25T04:02:08.225Z,69.90
2019-03-25T04:04:37.825Z,69.30
2019-03-25T04:07:07.229Z,69.00
2019-03-25T04:09:36.206Z,69.00
2019-03-25T04:12:05.184Z,69.40
2019-03-25T04:14:34.065Z,69.30
2019-03-25T04:17:02.921Z,69.50
2019-03-25T04:19:31.857Z,69.20
2019-03-25T04:22:01.147Z,71.00
2019-03-25T04:24:30.346Z,70.70
2019-03-25T04:26:59.168Z,70.60
2019-03-25T04:29:28.545Z,70.40
2019-03-25T04:31:57.767Z,70.90
2019-03-25T04:34:26.776Z,70.60
2019-03-25T04:36:55.625Z,70.50
2019-03-25T04:39:24.675Z,70.70
2019-03-25T04:41:53.724Z,71.40
2019-03-25T04:44:22.745Z,70.80
2019-03-25T04:46:51.863Z,71.80
2019-03-25T04:49:20.724Z,71.20
2019-03-25T04:51:49.484Z,71.40
2019-03-25T04:54:18.404Z,72.00
2019-03-25T04:56:47.211Z,72.30
2019-03-25T04:59:16.124Z,71.60
2019-03-25T05:01:45.025Z,71.30
2019-03-25T05:04:13.804Z,71.10
2019-03-25T05:06:42.884Z,72.10
2019-03-25T05:09:11.784Z,72.80
2019-03-25T05:11:40.564Z,73.70
2019-03-25T05:14:09.844Z,75.10
2019-03-25T05:16:38.765Z,76.20
2019-03-25T05:19:08.553Z,76.50
2019-03-25T05:21:37.727Z,77.30
2019-03-25T05:24:06.707Z,78.70
2019-03-25T05:26:35.407Z,78.10
2019-03-25T05:29:04.269Z,77.10
2019-03-25T05:31:33.784Z,77.40
2019-03-25T05:34:02.680Z,78.00
2019-03-25T05:36:32.344Z,78.30
2019-03-25T05:39:01.265Z,78.80
2019-03-25T05:41:32.006Z,78.50
2019-03-25T05:44:00.764Z,77.70
2019-03-25T05:46:32.866Z,76.60
2019-03-25T05:49:01.705Z,77.30
2019-03-25T05:51:30.663Z,77.70
2019-03-25T05:54:01.064Z,78.00
2019-03-25T05:56:30.287Z,77.20
2019-03-25T05:58:59.147Z,76.30
2019-03-25T06:01:28.967Z,76.20
2019-03-25T06:03:58.105Z,75.00
2019-03-25T06:06:27.531Z,76.50
2019-03-25T06:08:56.744Z,75.00
2019-03-25T06:11:26.165Z,75.70
2019-03-25T06:13:54.944Z,75.80
2019-03-25T06:16:26.845Z,77.00
2019-03-25T06:18:55.965Z,73.40
2019-03-25T06:21:25.127Z,73.70
2019-03-25T06:23:54.152Z,73.00
2019-03-25T06:26:23.044Z,74.20
2019-03-25T06:28:54.985Z,74.20
2019-03-25T06:31:24.344Z,74.10
2019-03-25T06:33:53.626Z,74.80
2019-03-25T06:36:22.403Z,74.30
2019-03-25T06:38:51.264Z,74.70
2019-03-25T06:41:20.126Z,76.00
2019-03-25T06:43:49.007Z,76.40
2019-03-25T06:46:17.764Z,76.70
2019-03-25T06:48:46.752Z,75.40
2019-03-25T06:51:15.904Z,75.00
2019-03-25T06:53:45.024Z,75.20
2019-03-25T06:56:13.890Z,75.10
2019-03-25T06:58:42.955Z,75.40
2019-03-25T07:01:12.245Z,75.80
2019-03-25T07:03:41.047Z,75.60
2019-03-25T07:06:10.044Z,73.30
2019-03-25T07:08:38.955Z,73.90
2019-03-25T07:11:08.005Z,74.30
2019-03-25T07:13:37.084Z,72.40
2019-03-25T07:16:06.085Z,71.80
2019-03-25T07:18:35.945Z,72.00
2019-03-25T07:21:04.844Z,70.30
2019-03-25T07:23:34.147Z,69.90
2019-03-25T07:26:03.004Z,71.00
2019-03-25T07:28:32.265Z,73.10
2019-03-25T07:31:01.268Z,73.40
2019-03-25T07:33:30.244Z,73.00
2019-03-25T07:35:59.684Z,72.80
2019-03-25T07:38:28.908Z,74.90
2019-03-25T07:40:57.884Z,74.90
2019-03-25T07:43:26.785Z,74.70
2019-03-25T07:45:55.964Z,75.20
2019-03-25T07:48:25.468Z,76.10
2019-03-25T07:50:54.604Z,75.30
2019-03-25T07:53:23.864Z,75.70
2019-03-25T07:55:52.974Z,76.20
2019-03-25T07:58:21.906Z,76.50
2019-03-25T08:00:51.165Z,77.30
2019-03-25T08:03:20.257Z,75.60
2019-03-25T08:05:49.664Z,74.70
2019-03-25T08:08:19.215Z,76.70
2019-03-25T08:10:48.752Z,76.90
2019-03-25T08:13:18.510Z,77.60
2019-03-25T08:15:47.728Z,76.20
2019-03-25T08:18:17.224Z,75.90
2019-03-25T08:20:46.453Z,75.50
2019-03-25T08:23:16.424Z,75.30
2019-03-25T08:25:45.393Z,74.20
2019-03-25T08:28:15.064Z,74.60
2019-03-25T08:30:44.411Z,74.20
2019-03-25T08:33:13.265Z,74.20
2019-03-25T08:35:42.744Z,72.40
2019-03-25T08:38:11.965Z,71.50
2019-03-25T08:40:40.984Z,71.70
2019-03-25T08:43:10.285Z,71.50
2019-03-25T08:45:39.404Z,69.80
2019-03-25T08:48:08.685Z,72.00
2019-03-25T08:50:37.826Z,67.70
2019-03-25T08:53:06.966Z,70.00
2019-03-25T08:55:36.264Z,68.10
2019-03-25T08:58:12.005Z,69.20
2019-03-25T09:00:35.645Z,69.50
2019-03-25T09:03:04.648Z,68.40
2019-03-25T09:05:33.465Z,67.80
2019-03-25T09:08:02.431Z,68.90
2019-03-25T09:10:33.043Z,67.70
2019-03-25T09:13:01.144Z,67.50
2019-03-25T09:15:30.024Z,65.40
2019-03-25T09:17:58.925Z,65.80
2019-03-25T09:20:28.305Z,67.80
2019-03-25T09:22:57.565Z,63.80
2019-03-25T09:25:26.845Z,64.70
2019-03-25T09:27:55.724Z,63.80
2019-03-25T09:30:53.365Z,64.10
2019-03-25T09:33:22.524Z,65.40
2019-03-25T09:35:51.754Z,66.40
2019-03-25T09:38:20.824Z,66.50
2019-03-25T09:40:49.945Z,65.20
2019-03-25T09:43:19.485Z,63.20
2019-03-25T09:45:48.907Z,59.80
2019-03-25T09:48:18.007Z,60.20
2019-03-25T09:50:47.485Z,60.10
2019-03-25T09:53:16.824Z,60.80
2019-03-25T09:55:46.125Z,61.70
2019-03-25T09:58:16.644Z,63.60
2019-03-25T10:00:45.685Z,62.40
2019-03-25T10:03:14.644Z,63.40
2019-03-25T10:05:44.226Z,66.20
2019-03-25T10:08:14.004Z,65.60
2019-03-25T10:10:42.845Z,66.80
2019-03-25T10:13:11.805Z,66.70
2019-03-25T10:15:40.804Z,66.70
2019-03-25T10:18:09.946Z,65.70
2019-03-25T10:20:39.924Z,66.40
2019-03-25T10:23:08.984Z,66.20
2019-03-25T10:25:38.404Z,68.10
2019-03-25T10:28:08.065Z,68.60
2019-03-25T10:30:37.124Z,67.90
2019-03-25T10:33:05.964Z,67.60
2019-03-25T10:35:35.104Z,67.50
2019-03-25T10:38:03.964Z,68.20
2019-03-25T10:40:32.864Z,68.80
2019-03-25T10:43:01.691Z,69.40
2019-03-25T10:45:31.524Z,68.70
2019-03-25T10:48:00.704Z,69.40
2019-03-25T10:50:30.084Z,71.00
2019-03-25T10:52:59.384Z,70.30
2019-03-25T10:55:28.279Z,71.40
2019-03-25T10:57:57.506Z,71.90
2019-03-25T11:00:26.480Z,71.90
2019-03-25T11:02:55.695Z,72.90
2019-03-25T11:05:25.143Z,73.20
2019-03-25T11:07:54.264Z,75.20
2019-03-25T11:10:23.363Z,75.70
2019-03-25T11:12:52.844Z,77.40
2019-03-25T11:15:22.543Z,77.20
2019-03-25T11:17:51.910Z,78.10
2019-03-25T11:20:21.303Z,77.60
2019-03-25T11:22:50.247Z,75.00
2019-03-25T11:25:19.364Z,79.00
2019-03-25T11:27:54.345Z,78.40
2019-03-25T11:30:22.464Z,74.20
2019-03-25T11:32:51.525Z,75.40
2019-03-25T11:35:20.324Z,78.70
2019-03-25T11:37:49.123Z,76.90
2019-03-25T11:40:18.204Z,76.40
2019-03-25T11:42:47.364Z,77.70
2019-03-25T11:45:16.524Z,74.00
2019-03-25T11:47:45.944Z,73.10
2019-03-25T11:50:14.967Z,75.90
2019-03-25T11:52:43.931Z,72.20
2019-03-25T11:55:12.984Z,70.50
2019-03-25T11:57:41.844Z,72.50
2019-03-25T12:00:10.603Z,68.70
2019-03-25T12:02:39.483Z,63.00
2019-03-25T12:05:08.506Z,66.00
2019-03-25T12:07:37.624Z,67.90
2019-03-25T12:10:07.570Z,65.40
2019-03-25T12:12:36.645Z,69.60
2019-03-25T12:15:07.344Z,71.90
2019-03-25T12:17:36.704Z,68.80
2019-03-25T12:20:07.123Z,70.40
2019-03-25T12:22:36.265Z,70.80
2019-03-25T12:25:07.865Z,71.80
2019-03-25T12:27:36.666Z,74.50
2019-03-25T12:30:08.890Z,66.40
2019-03-25T12:32:37.706Z,67.50
2019-03-25T12:35:07.587Z,68.90
2019-03-25T12:37:36.924Z,70.00
2019-03-25T12:40:07.918Z,70.80
2019-03-25T12:42:35.644Z,75.60
2019-03-25T12:45:06.625Z,80.50
2019-03-25T12:47:35.485Z,75.70
2019-03-25T12:50:07.107Z,65.20
2019-03-25T12:52:37.126Z,63.10
2019-03-25T12:55:07.846Z,61.20
2019-03-25T12:57:36.124Z,60.80
2019-03-25T13:00:07.069Z,60.60
2019-03-25T13:02:35.944Z,59.30
2019-03-25T13:05:06.264Z,60.50
2019-03-25T13:07:35.085Z,60.60
2019-03-25T13:10:04.824Z,61.70
2019-03-25T13:12:33.964Z,60.50
2019-03-25T13:15:03.266Z,58.40
2019-03-25T13:17:32.364Z,58.80
2019-03-25T13:20:01.104Z,59.00
2019-03-25T13:22:30.423Z,59.40
2019-03-25T13:24:59.504Z,57.60
2019-03-25T13:27:28.987Z,58.60
2019-03-25T13:29:58.105Z,57.70
2019-03-25T13:32:27.104Z,56.80
2019-03-25T13:34:56.024Z,56.20
2019-03-25T13:37:24.885Z,55.60
2019-03-25T13:39:53.672Z,57.80
2019-03-25T13:42:22.744Z,55.70
2019-03-25T13:44:51.604Z,55.40
2019-03-25T13:47:21.125Z,55.30
2019-03-25T13:49:50.104Z,55.20
2019-03-25T13:52:19.226Z,55.30
2019-03-25T13:54:48.025Z,56.90
2019-03-25T13:57:17.025Z,57.20
2019-03-25T13:59:46.206Z,56.80
2019-03-25T14:02:15.265Z,53.70
2019-03-25T14:04:44.724Z,54.50
2019-03-25T14:07:13.844Z,53.90
2019-03-25T14:09:42.585Z,54.10
2019-03-25T14:12:11.367Z,54.70
2019-03-25T14:14:40.333Z,52.80
2019-03-25T14:17:09.084Z,54.30
2019-03-25T14:19:38.425Z,54.70
2019-03-25T14:22:07.412Z,56.10
2019-03-25T14:24:38.286Z,54.40
2019-03-25T14:27:07.704Z,54.50
2019-03-25T14:29:36.984Z,54.70
2019-03-25T14:32:05.785Z,53.50
2019-03-25T14:34:44.361Z,53.70
2019-03-25T14:37:05.705Z,53.60
2019-03-25T14:39:34.744Z,54.40
2019-03-25T14:42:03.584Z,54.60
2019-03-25T14:44:32.347Z,55.30
2019-03-25T14:47:01.384Z,53.60
2019-03-25T14:49:30.265Z,53.60
2019-03-25T14:51:59.788Z,54.60
2019-03-25T14:54:28.924Z,53.90
2019-03-25T14:56:57.724Z,53.60
2019-03-25T14:59:26.765Z,53.60
2019-03-25T15:01:55.805Z,54.10
2019-03-25T15:04:25.144Z,53.50
2019-03-25T15:06:54.424Z,54.30
2019-03-25T15:09:23.285Z,54.80
2019-03-25T15:11:52.024Z,54.20
2019-03-25T15:14:21.124Z,54.10
2019-03-25T15:16:50.265Z,52.10
2019-03-25T15:19:19.944Z,52.80
2019-03-25T15:21:48.825Z,51.00
2019-03-25T15:24:17.944Z,51.30
2019-03-25T15:26:47.005Z,49.90
2019-03-25T15:29:16.345Z,49.70
2019-03-25T15:31:45.245Z,48.50
2019-03-25T15:34:14.079Z,49.60
2019-03-25T15:36:43.524Z,48.70
2019-03-25T15:39:12.444Z,48.70
2019-03-25T15:41:41.444Z,48.50
2019-03-25T15:44:13.507Z,47.60
2019-03-25T15:46:42.530Z,48.10
2019-03-25T15:49:11.789Z,48.50
2019-03-25T15:51:40.526Z,47.60
2019-03-25T15:54:09.308Z,47.50
2019-03-25T15:56:38.126Z,47.30
2019-03-25T15:59:07.645Z,47.20
2019-03-25T16:01:36.449Z,47.30
2019-03-25T16:04:06.046Z,47.80
2019-03-25T16:06:35.084Z,46.90
2019-03-25T16:09:04.464Z,48.10
2019-03-25T16:11:35.626Z,47.70
2019-03-25T16:14:04.964Z,46.80
2019-03-25T16:16:33.744Z,47.00
2019-03-25T16:19:02.405Z,45.70
2019-03-25T16:21:31.144Z,44.80
2019-03-25T16:24:01.434Z,44.80
2019-03-25T16:26:30.344Z,45.30
2019-03-25T16:28:59.184Z,45.10
2019-03-25T16:31:27.904Z,44.40
2019-03-25T16:33:56.727Z,45.20
2019-03-25T16:36:26.904Z,43.90
2019-03-25T16:38:55.844Z,44.00
2019-03-25T16:41:24.604Z,43.70
2019-03-25T16:43:53.806Z,43.60
2019-03-25T16:46:22.624Z,44.30
2019-03-25T16:48:51.570Z,43.60
2019-03-25T16:51:20.329Z,43.90
2019-03-25T16:53:49.246Z,43.90
2019-03-25T16:56:18.534Z,43.60
2019-03-25T16:58:47.584Z,44.80
2019-03-25T17:01:16.424Z,44.10
2019-03-25T17:03:45.865Z,45.10
2019-03-25T17:06:14.764Z,44.60
2019-03-25T17:08:43.684Z,45.30
2019-03-25T17:11:12.572Z,45.50
2019-03-25T17:13:41.624Z,44.90
2019-03-25T17:16:10.904Z,45.10
2019-03-25T17:18:39.744Z,45.30
2019-03-25T17:21:08.824Z,46.70
2019-03-25T17:23:37.804Z,46.30
2019-03-25T17:26:06.786Z,46.90
2019-03-25T17:28:36.185Z,47.60
2019-03-25T17:31:06.100Z,48.10
2019-03-25T17:33:35.847Z,48.50
2019-03-25T17:36:04.565Z,49.40
2019-03-25T17:38:33.665Z,49.70
2019-03-25T17:41:02.424Z,49.50
2019-03-25T17:43:31.504Z,48.80
2019-03-25T17:46:00.424Z,48.80
2019-03-25T17:48:29.644Z,49.70
2019-03-25T17:50:58.364Z,49.90
2019-03-25T17:53:27.246Z,50.90
2019-03-25T17:55:56.057Z,49.70
2019-03-25T17:58:25.349Z,51.10
2019-03-25T18:01:03.646Z,52.00
2019-03-25T18:03:32.644Z,51.60
2019-03-25T18:06:01.511Z,51.80
2019-03-25T18:08:30.845Z,51.60
2019-03-25T18:11:00.185Z,52.00
2019-03-25T18:13:28.870Z,51.70
2019-03-25T18:15:57.828Z,52.80
2019-03-25T18:18:26.971Z,52.00
2019-03-25T18:20:56.328Z,52.80
2019-03-25T18:23:25.748Z,51.60
2019-03-25T18:25:54.627Z,52.50
2019-03-25T18:28:23.466Z,52.50
2019-03-25T18:30:53.006Z,51.30
2019-03-25T18:33:21.947Z,51.00
2019-03-25T18:35:50.773Z,50.60
2019-03-25T18:38:19.644Z,51.10
2019-03-25T18:40:48.524Z,50.70
2019-03-25T18:43:17.443Z,50.70
2019-03-25T18:45:46.584Z,51.00
2019-03-25T18:48:15.750Z,51.50
2019-03-25T18:50:45.233Z,50.90
2019-03-25T18:53:14.006Z,49.80
2019-03-25T18:55:42.960Z,50.10
2019-03-25T18:58:11.865Z,50.20
2019-03-25T19:00:41.083Z,51.10
2019-03-25T19:03:10.670Z,49.70
2019-03-25T19:05:39.839Z,50.50
2019-03-25T19:08:09.166Z,49.60
2019-03-25T19:10:38.144Z,49.50
2019-03-25T19:13:07.119Z,49.40
2019-03-25T19:15:35.989Z,48.50
2019-03-25T19:18:05.114Z,47.30
2019-03-25T19:20:33.928Z,47.10
2019-03-25T19:23:02.928Z,47.30
2019-03-25T19:25:31.948Z,48.00
2019-03-25T19:28:02.260Z,48.10
2019-03-25T19:30:31.309Z,47.90
2019-03-25T19:33:00.098Z,48.30
2019-03-25T19:35:30.152Z,47.90
2019-03-25T19:37:58.850Z,48.10
2019-03-25T19:40:27.572Z,48.50
2019-03-25T19:42:56.675Z,48.60
2019-03-25T19:45:25.677Z,49.60
2019-03-25T19:47:54.512Z,49.10
2019-03-25T19:50:23.684Z,49.00
2019-03-25T19:52:52.484Z,48.90
2019-03-25T19:55:21.190Z,49.30
2019-03-25T19:57:50.405Z,48.60
2019-03-25T20:00:22.265Z,48.80
2019-03-25T20:02:51.073Z,50.00
2019-03-25T20:05:20.224Z,50.60
2019-03-25T20:07:49.475Z,50.80
2019-03-25T20:10:33.176Z,51.20
2019-03-25T20:13:02.621Z,52.60
2019-03-25T20:15:44.964Z,52.50
2019-03-25T20:18:02.146Z,52.70
2019-03-25T20:20:31.105Z,53.00
2019-03-25T20:22:59.913Z,53.30
2019-03-25T20:25:28.871Z,54.30
2019-03-25T20:27:58.284Z,54.40
2019-03-25T20:30:27.228Z,54.70
2019-03-25T20:32:56.163Z,55.40
2019-03-25T20:35:25.206Z,55.50
2019-03-25T20:37:54.048Z,55.90
2019-03-25T20:40:22.688Z,56.20
2019-03-25T20:42:51.869Z,56.60
2019-03-25T20:45:20.620Z,56.60
2019-03-25T20:47:49.537Z,56.50
2019-03-25T20:50:18.378Z,56.60
2019-03-25T20:52:47.344Z,56.40
2019-03-25T20:55:16.281Z,56.60
2019-03-25T20:57:45.166Z,56.40
2019-03-25T21:00:15.592Z,57.10
2019-03-25T21:02:45.514Z,57.00
2019-03-25T21:05:14.885Z,57.00
2019-03-25T21:07:43.859Z,56.40
2019-03-25T21:10:12.766Z,56.40
2019-03-25T21:12:42.366Z,56.10
2019-03-25T21:15:11.396Z,56.70
2019-03-25T21:17:40.240Z,56.80
2019-03-25T21:20:09.089Z,56.80
2019-03-25T21:22:38.009Z,56.80
2019-03-25T21:25:08.583Z,57.10
2019-03-25T21:27:37.089Z,58.20
2019-03-25T21:30:07.675Z,58.50
2019-03-25T21:32:37.192Z,58.30
2019-03-25T21:35:06.923Z,58.50
2019-03-25T21:37:35.826Z,58.60
2019-03-25T21:40:06.884Z,58.90
2019-03-25T21:42:35.550Z,58.70
2019-03-25T21:45:07.034Z,59.60
2019-03-25T21:47:36.395Z,61.30
2019-03-25T21:50:06.507Z,63.00
2019-03-25T21:52:35.649Z,64.30
2019-03-25T21:55:06.283Z,65.40
2019-03-25T21:57:35.225Z,65.70
2019-03-25T22:00:08.398Z,65.80
2019-03-25T22:02:38.304Z,65.10
2019-03-25T22:05:07.756Z,66.40
2019-03-25T22:07:37.006Z,66.90
2019-03-25T22:10:06.604Z,66.40
2019-03-25T22:12:35.844Z,65.90
2019-03-25T22:15:08.404Z,66.10
2019-03-25T22:17:38.244Z,65.10
2019-03-25T22:20:10.267Z,66.10
2019-03-25T22:22:39.865Z,65.70
2019-03-25T22:25:08.825Z,66.00
2019-03-25T22:27:38.064Z,66.00
2019-03-25T22:30:07.564Z,65.30
2019-03-25T22:32:36.505Z,65.50
2019-03-25T22:35:06.906Z,64.30
2019-03-25T22:37:36.325Z,64.70
2019-03-25T22:40:07.704Z,63.50
2019-03-25T22:42:36.624Z,63.60
2019-03-25T22:45:06.845Z,63.90
2019-03-25T22:47:36.668Z,63.30
2019-03-25T22:50:12.107Z,63.20
2019-03-25T22:52:41.088Z,63.90
2019-03-25T22:55:09.984Z,64.40
2019-03-25T22:57:39.524Z,65.10
2019-03-25T23:00:09.247Z,65.60
2019-03-25T23:02:39.646Z,65.00
2019-03-25T23:05:11.288Z,64.60
2019-03-25T23:07:40.355Z,65.20
2019-03-25T23:10:09.889Z,65.80
2019-03-25T23:12:39.064Z,65.40
2019-03-25T23:15:08.425Z,64.10
2019-03-25T23:17:37.644Z,65.20
2019-03-25T23:20:07.664Z,65.20
2019-03-25T23:22:36.595Z,64.00
2019-03-25T23:25:06.924Z,63.70
2019-03-25T23:27:35.904Z,63.50
2019-03-25T23:30:06.104Z,64.50
2019-03-25T23:32:35.164Z,65.40
2019-03-25T23:35:05.545Z,66.80
2019-03-25T23:37:34.691Z,66.40
2019-03-25T23:40:05.824Z,65.70
2019-03-25T23:42:36.184Z,64.70
2019-03-25T23:45:06.928Z,65.00
2019-03-25T23:47:36.024Z,65.40
2019-03-25T23:50:06.745Z,64.30
2019-03-25T23:52:35.904Z,64.80
2019-03-25T23:55:06.363Z,64.40
2019-03-25T23:57:35.243Z,64.90
